Time;durP1;ratioP1;P1;durP2;ratioP2;P2;SDS_P1;SDS_P2;PMS_P1;PMS_P2;Temp;Humidity;BMP_temperature;BMP_pressure;BME280_temperature;BME280_humidity;BME280_pressure;Samples;Min_cycle;Max_cycle;Signal;HPM_P1;HPM_P2
2023/08/29 00:01:12;;;;;;;0.32;0.32;;;;;;;;;;6244306;22;20167;-91
2023/08/29 00:04:17;;;;;;;0.20;0.20;;;;;;;;;;6226607;23;20615;-92
2023/08/29 00:07:22;;;;;;;0.35;0.35;;;;;;;;;;6223512;23;20385;-88
2023/08/29 00:10:27;;;;;;;0.20;0.20;;;;;;;;;;6223875;23;20175;-92
2023/08/29 00:13:34;;;;;;;0.20;0.20;;;;;;;;;;6230344;23;20164;-89
2023/08/29 00:16:39;;;;;;;0.20;0.20;;;;;;;;;;6227202;23;20183;-92
2023/08/29 00:19:44;;;;;;;0.20;0.20;;;;;;;;;;6223721;23;20163;-90
2023/08/29 00:22:49;;;;;;;0.30;0.30;;;;;;;;;;6222482;23;20163;-90
2023/08/29 00:25:55;;;;;;;0.20;0.20;;;;;;;;;;6225089;23;20151;-92
2023/08/29 00:29:02;;;;;;;0.43;0.30;;;;;;;;;;6225325;23;20210;-90
2023/08/29 00:32:07;;;;;;;0.20;0.20;;;;;;;;;;6224840;23;20624;-92
2023/08/29 00:35:12;;;;;;;0.20;0.20;;;;;;;;;;6226033;23;20170;-94
2023/08/29 00:38:17;;;;;;;0.20;0.20;;;;;;;;;;6225206;23;20174;-93
2023/08/29 00:41:22;;;;;;;0.30;0.30;;;;;;;;;;6225795;23;20246;-90
2023/08/29 00:44:29;;;;;;;0.20;0.20;;;;;;;;;;6227016;23;20508;-87
2023/08/29 00:47:34;;;;;;;0.20;0.20;;;;;;;;;;6228388;23;20198;-91
2023/08/29 00:50:39;;;;;;;0.20;0.20;;;;;;;;;;6230316;23;20175;-94
2023/08/29 00:53:44;;;;;;;0.20;0.20;;;;;;;;;;6228826;23;20610;-90
2023/08/29 00:56:49;;;;;;;0.20;0.20;;;;;;;;;;6229972;23;20195;-89
2023/08/29 00:59:56;;;;;;;0.20;0.20;;;;;;;;;;6228740;23;20286;-92
2023/08/29 01:03:02;;;;;;;0.20;0.20;;;;;;;;;;6229526;23;20146;-90
2023/08/29 01:06:07;;;;;;;0.28;0.28;;;;;;;;;;6229930;23;20190;-90
2023/08/29 01:09:13;;;;;;;0.20;0.20;;;;;;;;;;6228655;23;20171;-88
2023/08/29 01:12:18;;;;;;;0.20;0.20;;;;;;;;;;6228354;23;20167;-89
2023/08/29 01:15:29;;;;;;;0.20;0.20;;;;;;;;;;6228162;23;20167;-91
2023/08/29 01:18:36;;;;;;;0.30;0.30;;;;;;;;;;6246563;23;20171;-90
2023/08/29 01:21:47;;;;;;;0.30;0.30;;;;;;;;;;6228339;23;20693;-89
2023/08/29 01:24:55;;;;;;;0.30;0.30;;;;;;;;;;6229080;23;20155;-91
2023/08/29 01:28:02;;;;;;;0.20;0.20;;;;;;;;;;6230008;23;20198;-94
2023/08/29 01:31:33;;;;;;;0.20;0.20;;;;;;;;;;6230116;23;20179;-91
2023/08/29 01:35:13;;;;;;;0.20;0.20;;;;;;;;;;6231328;23;20199;-91
2023/08/29 01:38:50;;;;;;;0.20;0.20;;;;;;;;;;6229916;23;20190;-90
2023/08/29 01:42:28;;;;;;;0.80;0.52;;;;;;;;;;6229297;23;20167;-88
2023/08/29 01:45:34;;;;;;;0.25;0.25;;;;;;;;;;6228829;23;20150;-90
2023/08/29 01:48:40;;;;;;;0.25;0.25;;;;;;;;;;6227477;23;20166;-90
2023/08/29 01:51:46;;;;;;;0.30;0.30;;;;;;;;;;6228104;23;20155;-92
2023/08/29 01:54:51;;;;;;;0.20;0.20;;;;;;;;;;6227529;23;20217;-89
2023/08/29 01:57:57;;;;;;;0.20;0.20;;;;;;;;;;6225582;23;20178;-91
2023/08/29 02:01:04;;;;;;;0.20;0.20;;;;;;;;;;6226955;23;20151;-91
2023/08/29 02:04:09;;;;;;;0.20;0.20;;;;;;;;;;6226908;23;20654;-88
2023/08/29 02:07:18;;;;;;;0.20;0.20;;;;;;;;;;6227228;23;20206;-91
2023/08/29 02:10:23;;;;;;;0.22;0.22;;;;;;;;;;6226202;23;20163;-87
2023/08/29 02:13:28;;;;;;;0.20;0.20;;;;;;;;;;6226222;23;20595;-90
2023/08/29 02:16:35;;;;;;;0.20;0.20;;;;;;;;;;6227570;23;20183;-88
2023/08/29 02:19:40;;;;;;;0.20;0.20;;;;;;;;;;6228372;23;20217;-92
2023/08/29 02:22:44;;;;;;;0.25;0.25;;;;;;;;;;6228899;23;20245;-88
2023/08/29 02:26:01;;;;;;;0.20;0.20;;;;;;;;;;6226417;23;20175;-89
2023/08/29 02:29:06;;;;;;;3.72;0.95;;;;;;;;;;6229290;23;20159;-93
2023/08/29 02:32:12;;;;;;;0.22;0.22;;;;;;;;;;6228447;23;20170;-88
2023/08/29 02:35:17;;;;;;;0.30;0.30;;;;;;;;;;6229005;23;20234;-92
2023/08/29 02:38:22;;;;;;;0.20;0.20;;;;;;;;;;6228910;23;20171;-91
2023/08/29 02:41:28;;;;;;;1.98;0.60;;;;;;;;;;6246171;22;20489;-90
2023/08/29 02:44:33;;;;;;;0.20;0.20;;;;;;;;;;6231086;23;20167;-89
2023/08/29 02:47:40;;;;;;;0.20;0.20;;;;;;;;;;6229412;23;20198;-90
2023/08/29 02:50:48;;;;;;;0.20;0.20;;;;;;;;;;6230923;23;20159;-92
2023/08/29 02:53:53;;;;;;;0.20;0.20;;;;;;;;;;6230223;23;20207;-90
2023/08/29 02:56:58;;;;;;;0.20;0.20;;;;;;;;;;6229609;23;20247;-90
2023/08/29 03:00:05;;;;;;;0.35;0.35;;;;;;;;;;6229930;23;20151;-91
2023/08/29 03:03:11;;;;;;;0.30;0.30;;;;;;;;;;6229905;23;20218;-91
2023/08/29 03:06:16;;;;;;;0.43;0.43;;;;;;;;;;6230122;23;20156;-90
2023/08/29 03:09:22;;;;;;;0.20;0.20;;;;;;;;;;6228626;23;20170;-92
2023/08/29 03:12:27;;;;;;;0.20;0.20;;;;;;;;;;6228693;23;20151;-91
2023/08/29 03:15:35;;;;;;;0.20;0.20;;;;;;;;;;6229802;23;20167;-93
2023/08/29 03:18:43;;;;;;;0.30;0.30;;;;;;;;;;6230790;23;20171;-92
2023/08/29 03:21:48;;;;;;;0.40;0.35;;;;;;;;;;6229554;23;20183;-90
2023/08/29 03:24:53;;;;;;;0.20;0.20;;;;;;;;;;6229700;23;20224;-92
2023/08/29 03:27:59;;;;;;;0.20;0.20;;;;;;;;;;6229523;23;20240;-89
2023/08/29 03:31:09;;;;;;;0.20;0.20;;;;;;;;;;6231313;23;20179;-89
2023/08/29 03:34:15;;;;;;;0.20;0.20;;;;;;;;;;6230856;23;20210;-93
2023/08/29 03:37:20;;;;;;;0.30;0.30;;;;;;;;;;6228427;23;20191;-91
2023/08/29 03:40:25;;;;;;;0.30;0.30;;;;;;;;;;6231037;23;20202;-91
2023/08/29 03:43:32;;;;;;;0.20;0.20;;;;;;;;;;6229946;23;20151;-91
2023/08/29 03:46:38;;;;;;;0.20;0.20;;;;;;;;;;6231990;23;20167;-91
2023/08/29 03:49:45;;;;;;;0.30;0.30;;;;;;;;;;6232677;23;20183;-92
2023/08/29 03:52:50;;;;;;;0.20;0.20;;;;;;;;;;6231018;23;20163;-90
2023/08/29 03:55:56;;;;;;;0.30;0.30;;;;;;;;;;6229172;23;20178;-90
2023/08/29 03:59:03;;;;;;;0.30;0.30;;;;;;;;;;6229500;23;20291;-90
2023/08/29 04:02:09;;;;;;;0.20;0.20;;;;;;;;;;6229892;23;20167;-93
2023/08/29 04:05:17;;;;;;;0.20;0.20;;;;;;;;;;6231766;23;20218;-91
2023/08/29 04:08:22;;;;;;;0.30;0.30;;;;;;;;;;6231729;23;20191;-89
2023/08/29 04:11:27;;;;;;;0.20;0.20;;;;;;;;;;6229127;23;20163;-90
2023/08/29 04:14:33;;;;;;;0.20;0.20;;;;;;;;;;6229718;23;20214;-87
2023/08/29 04:17:39;;;;;;;0.20;0.20;;;;;;;;;;6228945;23;20232;-90
2023/08/29 04:20:45;;;;;;;0.30;0.30;;;;;;;;;;6228636;23;20159;-92
2023/08/29 04:23:50;;;;;;;0.30;0.30;;;;;;;;;;6231616;23;20196;-93
2023/08/29 04:26:55;;;;;;;0.75;0.45;;;;;;;;;;6229559;23;20547;-92
2023/08/29 04:30:02;;;;;;;0.20;0.20;;;;;;;;;;6227138;23;20517;-88
2023/08/29 04:33:08;;;;;;;0.20;0.20;;;;;;;;;;6229893;23;20163;-88
2023/08/29 04:36:17;;;;;;;0.30;0.30;;;;;;;;;;6232175;23;20194;-89
2023/08/29 04:39:22;;;;;;;0.30;0.30;;;;;;;;;;6230594;23;20218;-91
2023/08/29 04:42:28;;;;;;;0.20;0.20;;;;;;;;;;6230261;23;20182;-88
2023/08/29 04:45:34;;;;;;;0.20;0.20;;;;;;;;;;6229144;23;20170;-88
2023/08/29 04:48:39;;;;;;;0.28;0.28;;;;;;;;;;6232615;23;20202;-90
2023/08/29 04:51:46;;;;;;;0.20;0.20;;;;;;;;;;6232900;23;20214;-86
2023/08/29 04:54:53;;;;;;;0.20;0.20;;;;;;;;;;6232809;23;20171;-89
2023/08/29 04:57:59;;;;;;;0.30;0.30;;;;;;;;;;6228634;23;20290;-88
2023/08/29 05:01:04;;;;;;;0.20;0.20;;;;;;;;;;6228929;23;20167;-92
2023/08/29 05:04:10;;;;;;;0.20;0.20;;;;;;;;;;6231154;23;20171;-90
2023/08/29 05:07:18;;;;;;;0.30;0.30;;;;;;;;;;6249284;22;20171;-90
2023/08/29 05:10:24;;;;;;;0.20;0.20;;;;;;;;;;6231497;23;20170;-93
2023/08/29 05:13:30;;;;;;;0.30;0.30;;;;;;;;;;6230212;23;20167;-88
2023/08/29 05:16:35;;;;;;;0.30;0.30;;;;;;;;;;6229326;23;20183;-89
2023/08/29 05:19:40;;;;;;;0.40;0.40;;;;;;;;;;6230258;23;20167;-87
2023/08/29 05:22:47;;;;;;;0.20;0.20;;;;;;;;;;6229891;23;20171;-88
2023/08/29 05:25:53;;;;;;;0.20;0.20;;;;;;;;;;6229420;23;20723;-91
2023/08/29 05:28:58;;;;;;;0.20;0.20;;;;;;;;;;6245557;22;20210;-92
2023/08/29 05:32:03;;;;;;;0.22;0.22;;;;;;;;;;6226249;23;20166;-90
2023/08/29 05:35:09;;;;;;;0.20;0.20;;;;;;;;;;6226682;23;20210;-89
2023/08/29 05:38:15;;;;;;;0.30;0.30;;;;;;;;;;6226364;23;20598;-91
2023/08/29 05:41:20;;;;;;;1.13;0.50;;;;;;;;;;6227967;23;20172;-91
2023/08/29 05:44:26;;;;;;;0.20;0.20;;;;;;;;;;6230679;23;20214;-91
2023/08/29 05:47:31;;;;;;;0.40;0.40;;;;;;;;;;6234422;23;20166;-91
2023/08/29 05:50:36;;;;;;;0.30;0.30;;;;;;;;;;6233389;23;20213;-88
2023/08/29 05:53:43;;;;;;;0.50;0.50;;;;;;;;;;6230318;23;20223;-86
2023/08/29 05:56:48;;;;;;;0.20;0.20;;;;;;;;;;6227720;23;20497;-91
2023/08/29 05:59:55;;;;;;;0.20;0.20;;;;;;;;;;6231395;23;20175;-92
2023/08/29 06:03:01;;;;;;;0.30;0.30;;;;;;;;;;6230209;23;20283;-88
2023/08/29 06:06:07;;;;;;;0.22;0.22;;;;;;;;;;6229648;23;20171;-89
2023/08/29 06:09:14;;;;;;;0.20;0.20;;;;;;;;;;6229709;23;20618;-90
2023/08/29 06:12:19;;;;;;;0.22;0.22;;;;;;;;;;6230079;23;20171;-88
2023/08/29 06:15:25;;;;;;;0.30;0.30;;;;;;;;;;6228994;23;20167;-93
2023/08/29 06:18:32;;;;;;;0.30;0.30;;;;;;;;;;6230546;23;20171;-90
2023/08/29 06:21:38;;;;;;;0.20;0.20;;;;;;;;;;6232200;23;20172;-90
2023/08/29 06:24:45;;;;;;;0.20;0.20;;;;;;;;;;6232076;23;20191;-89
2023/08/29 06:27:50;;;;;;;0.40;0.40;;;;;;;;;;6232047;23;20223;-90
2023/08/29 06:30:55;;;;;;;0.20;0.20;;;;;;;;;;6229166;23;20168;-91
2023/08/29 06:34:00;;;;;;;0.40;0.40;;;;;;;;;;6227485;23;20170;-89
2023/08/29 06:37:06;;;;;;;0.30;0.30;;;;;;;;;;6226955;23;20194;-92
2023/08/29 06:40:13;;;;;;;0.32;0.32;;;;;;;;;;6227605;23;20674;-91
2023/08/29 06:43:18;;;;;;;0.20;0.20;;;;;;;;;;6228920;23;20162;-88
2023/08/29 06:46:24;;;;;;;0.30;0.30;;;;;;;;;;6229493;23;20188;-93
2023/08/29 06:49:29;;;;;;;1.95;1.73;;;;;;;;;;6227160;23;20210;-89
2023/08/29 06:52:34;;;;;;;0.50;0.50;;;;;;;;;;6230270;23;20179;-92
2023/08/29 06:55:41;;;;;;;0.20;0.20;;;;;;;;;;6230246;23;20183;-87
2023/08/29 06:58:46;;;;;;;0.20;0.20;;;;;;;;;;6227707;23;20171;-91
2023/08/29 07:01:51;;;;;;;0.20;0.20;;;;;;;;;;6233813;23;20170;-89
2023/08/29 07:04:57;;;;;;;0.20;0.20;;;;;;;;;;6231382;23;20170;-92
2023/08/29 07:08:04;;;;;;;0.20;0.20;;;;;;;;;;6247645;22;20265;-90
2023/08/29 07:11:12;;;;;;;0.40;0.40;;;;;;;;;;6231077;23;20166;-87
2023/08/29 07:14:17;;;;;;;0.20;0.20;;;;;;;;;;6230238;23;20283;-89
2023/08/29 07:17:23;;;;;;;0.20;0.20;;;;;;;;;;6228536;23;20207;-88
2023/08/29 07:20:30;;;;;;;0.20;0.20;;;;;;;;;;6229244;23;20190;-91
2023/08/29 07:23:35;;;;;;;0.20;0.20;;;;;;;;;;6230571;23;20216;-92
2023/08/29 07:26:42;;;;;;;0.30;0.30;;;;;;;;;;6229634;23;20501;-89
2023/08/29 07:29:47;;;;;;;0.77;0.77;;;;;;;;;;6227897;23;20291;-92
2023/08/29 07:32:53;;;;;;;0.30;0.30;;;;;;;;;;6227221;23;20167;-90
2023/08/29 07:35:58;;;;;;;0.20;0.20;;;;;;;;;;6228987;23;20214;-89
2023/08/29 07:39:04;;;;;;;0.20;0.20;;;;;;;;;;6228691;23;20202;-91
2023/08/29 07:42:10;;;;;;;6.20;1.02;;;;;;;;;;6228326;23;20172;-90
2023/08/29 07:45:16;;;;;;;0.20;0.20;;;;;;;;;;6226694;23;20211;-90
2023/08/29 07:48:21;;;;;;;0.20;0.20;;;;;;;;;;6234438;23;20222;-90
2023/08/29 07:51:26;;;;;;;0.30;0.30;;;;;;;;;;6230350;23;20151;-89
2023/08/29 07:54:31;;;;;;;0.20;0.20;;;;;;;;;;6228975;23;20235;-92
2023/08/29 07:57:40;;;;;;;0.20;0.20;;;;;;;;;;6234740;23;20168;-91
2023/08/29 08:00:45;;;;;;;0.40;0.40;;;;;;;;;;6233566;23;20191;-90
2023/08/29 08:03:51;;;;;;;0.22;0.22;;;;;;;;;;6232760;23;20159;-88
2023/08/29 08:06:56;;;;;;;0.20;0.20;;;;;;;;;;6229959;23;20171;-91
2023/08/29 08:10:04;;;;;;;0.20;0.20;;;;;;;;;;6230631;23;20203;-90
2023/08/29 08:13:11;;;;;;;0.20;0.20;;;;;;;;;;6231810;23;20164;-91
2023/08/29 08:16:18;;;;;;;0.20;0.20;;;;;;;;;;6233453;23;20147;-91
2023/08/29 08:19:24;;;;;;;0.20;0.20;;;;;;;;;;6230864;23;20166;-90
2023/08/29 08:22:29;;;;;;;0.30;0.30;;;;;;;;;;6229536;23;20189;-90
2023/08/29 08:25:35;;;;;;;0.20;0.20;;;;;;;;;;6231367;23;20175;-88
2023/08/29 08:28:58;;;;;;;0.20;0.20;;;;;;;;;;6233470;23;20194;-90
2023/08/29 08:32:05;;;;;;;0.30;0.30;;;;;;;;;;6231770;23;20212;-92
2023/08/29 08:35:13;;;;;;;0.20;0.20;;;;;;;;;;6231868;23;20162;-91
2023/08/29 08:38:18;;;;;;;0.20;0.20;;;;;;;;;;6232168;23;20203;-88
2023/08/29 08:41:23;;;;;;;0.20;0.20;;;;;;;;;;6229564;23;20175;-88
2023/08/29 08:44:29;;;;;;;2.60;0.77;;;;;;;;;;6228916;23;20218;-89
2023/08/29 08:47:38;;;;;;;0.20;0.20;;;;;;;;;;6229700;23;20232;-92
2023/08/29 08:50:45;;;;;;;0.20;0.20;;;;;;;;;;6227342;23;20155;-89
2023/08/29 08:53:51;;;;;;;0.20;0.20;;;;;;;;;;6245089;23;20239;-91
2023/08/29 08:56:58;;;;;;;0.20;0.20;;;;;;;;;;6228508;23;20171;-92
2023/08/29 09:00:06;;;;;;;0.20;0.20;;;;;;;;;;6229051;23;20174;-92
2023/08/29 09:03:13;;;;;;;0.85;0.47;;;;;;;;;;6228140;23;20167;-90
2023/08/29 09:09:37;;;;;;;0.20;0.20;;;;;;;;;;6232569;23;20330;-90
2023/08/29 09:12:48;;;;;;;0.40;0.40;;;;;;;;;;6232768;23;20170;-88
2023/08/29 09:15:54;;;;;;;0.20;0.20;;;;;;;;;;6211769;23;20546;-90
2023/08/29 09:19:01;;;;;;;0.25;0.25;;;;;;;;;;6227199;23;20176;-88
2023/08/29 09:22:06;;;;;;;0.20;0.20;;;;;;;;;;6227550;23;20178;-90
2023/08/29 09:25:12;;;;;;;0.30;0.30;;;;;;;;;;6228066;23;20174;-87
2023/08/29 09:28:17;;;;;;;0.30;0.30;;;;;;;;;;6227031;23;20170;-90
2023/08/29 09:31:22;;;;;;;0.20;0.20;;;;;;;;;;6246558;23;20175;-89
2023/08/29 09:34:29;;;;;;;0.73;0.73;;;;;;;;;;6227078;23;20237;-90
2023/08/29 09:37:35;;;;;;;0.30;0.30;;;;;;;;;;6230570;23;20170;-89
2023/08/29 09:40:46;;;;;;;0.20;0.20;;;;;;;;;;6227521;23;20170;-96
2023/08/29 09:43:51;;;;;;;0.40;0.40;;;;;;;;;;6226784;23;20171;-90
2023/08/29 09:46:57;;;;;;;0.20;0.20;;;;;;;;;;6225625;23;20174;-86
2023/08/29 09:50:04;;;;;;;0.20;0.20;;;;;;;;;;6227588;23;20666;-90
2023/08/29 09:53:10;;;;;;;0.20;0.20;;;;;;;;;;6228535;23;20159;-89
2023/08/29 09:56:16;;;;;;;0.20;0.20;;;;;;;;;;6233578;23;20205;-89
2023/08/29 09:59:23;;;;;;;0.28;0.28;;;;;;;;;;6232461;23;20170;-89
2023/08/29 10:02:31;;;;;;;0.30;0.30;;;;;;;;;;6231996;23;20175;-90
2023/08/29 10:05:38;;;;;;;0.20;0.20;;;;;;;;;;6231824;23;20223;-89
2023/08/29 10:08:46;;;;;;;0.20;0.20;;;;;;;;;;6229808;23;20167;-89
2023/08/29 10:11:51;;;;;;;0.20;0.20;;;;;;;;;;6230087;23;20168;-92
2023/08/29 10:14:58;;;;;;;0.20;0.20;;;;;;;;;;6232755;23;20167;-93
2023/08/29 10:21:26;;;;;;;0.22;0.22;;;;;;;;;;6236016;23;20187;-92
2023/08/29 10:24:42;;;;;;;0.20;0.20;;;;;;;;;;6232443;23;20172;-92
2023/08/29 10:27:47;;;;;;;0.20;0.20;;;;;;;;;;6231779;23;20238;-90
2023/08/29 10:34:11;;;;;;;0.30;0.30;;;;;;;;;;6172254;23;20185;-91
2023/08/29 10:40:38;;;;;;;0.20;0.20;;;;;;;;;;6154519;23;20164;-91
2023/08/29 10:43:43;;;;;;;0.25;0.25;;;;;;;;;;6154358;23;20173;-90
2023/08/29 10:46:52;;;;;;;0.30;0.30;;;;;;;;;;6152046;23;20164;-91
2023/08/29 10:49:59;;;;;;;0.20;0.20;;;;;;;;;;6152007;23;20196;-91
2023/08/29 10:53:06;;;;;;;0.50;0.50;;;;;;;;;;6154967;23;20165;-90
2023/08/29 10:56:13;;;;;;;0.85;0.68;;;;;;;;;;6155991;23;20216;-89
2023/08/29 10:59:32;;;;;;;1.95;0.60;;;;;;;;;;6156283;23;20212;-93
2023/08/29 11:02:41;;;;;;;1.80;0.60;;;;;;;;;;6152483;23;20272;-91
2023/08/29 11:05:57;;;;;;;2.83;0.85;;;;;;;;;;6151931;23;20160;-89
2023/08/29 11:09:20;;;;;;;0.68;0.60;;;;;;;;;;6152576;23;20216;-94
2023/08/29 11:12:25;;;;;;;0.55;0.55;;;;;;;;;;6153994;23;20216;-89
2023/08/29 11:15:49;;;;;;;0.70;0.57;;;;;;;;;;6154886;23;20216;-92
2023/08/29 11:19:05;;;;;;;1.75;0.75;;;;;;;;;;6153062;23;20168;-89
2023/08/29 11:22:11;;;;;;;1.35;0.90;;;;;;;;;;6157357;23;20193;-88
2023/08/29 11:25:18;;;;;;;0.50;0.50;;;;;;;;;;6152250;23;20168;-91
2023/08/29 11:28:25;;;;;;;0.60;0.60;;;;;;;;;;6156195;23;20169;-90
2023/08/29 11:31:32;;;;;;;0.70;0.70;;;;;;;;;;6155641;23;20168;-91
2023/08/29 11:34:38;;;;;;;0.70;0.70;;;;;;;;;;6184130;23;20229;-90
2023/08/29 11:37:43;;;;;;;0.90;0.70;;;;;;;;;;6184264;23;20172;-89
2023/08/29 11:40:50;;;;;;;1.00;0.70;;;;;;;;;;6184636;23;20604;-90
2023/08/29 11:43:56;;;;;;;1.08;0.60;;;;;;;;;;6182731;23;20246;-93
2023/08/29 11:47:02;;;;;;;0.80;0.75;;;;;;;;;;6182642;23;20172;-90
2023/08/29 11:50:07;;;;;;;5.15;0.80;;;;;;;;;;6182595;23;20195;-90
2023/08/29 11:53:22;;;;;;;0.65;0.60;;;;;;;;;;6182101;23;20503;-89
2023/08/29 11:56:29;;;;;;;0.98;0.70;;;;;;;;;;6181589;23;20164;-90
2023/08/29 11:59:34;;;;;;;1.10;0.98;;;;;;;;;;6183176;23;20225;-90
2023/08/29 12:02:40;;;;;;;1.30;0.90;;;;;;;;;;6183906;23;20245;-92
2023/08/29 12:05:46;;;;;;;1.80;1.20;;;;;;;;;;6181520;23;20635;-89
2023/08/29 12:08:52;;;;;;;1.63;1.00;;;;;;;;;;6182953;23;20257;-88
2023/08/29 12:11:59;;;;;;;1.67;1.02;;;;;;;;;;6182923;23;20171;-91
2023/08/29 12:15:05;;;;;;;0.93;0.73;;;;;;;;;;6183388;23;20168;-90
2023/08/29 12:18:20;;;;;;;0.90;0.68;;;;;;;;;;6184160;23;20192;-90
2023/08/29 12:21:26;;;;;;;0.95;0.57;;;;;;;;;;6183777;23;20168;-89
2023/08/29 12:24:32;;;;;;;0.88;0.68;;;;;;;;;;6181740;23;20615;-89
2023/08/29 12:27:39;;;;;;;0.60;0.60;;;;;;;;;;6183688;23;20164;-91
2023/08/29 12:30:45;;;;;;;4.47;0.60;;;;;;;;;;6184516;23;20195;-90
2023/08/29 12:33:50;;;;;;;1.50;0.85;;;;;;;;;;6156840;23;20652;-89
2023/08/29 12:36:55;;;;;;;0.60;0.60;;;;;;;;;;6152482;23;20176;-88
2023/08/29 12:40:04;;;;;;;4.43;1.73;;;;;;;;;;6153781;23;20169;-90
2023/08/29 12:43:12;;;;;;;2.53;0.82;;;;;;;;;;6150330;23;20152;-93
2023/08/29 12:46:21;;;;;;;1.55;0.95;;;;;;;;;;6152720;23;20157;-94
2023/08/29 12:49:26;;;;;;;1.15;0.90;;;;;;;;;;6153854;23;20168;-92
2023/08/29 12:52:32;;;;;;;1.15;0.60;;;;;;;;;;6151965;23;20243;-90
2023/08/29 12:55:37;;;;;;;1.52;0.80;;;;;;;;;;6154987;23;20168;-89
2023/08/29 12:58:45;;;;;;;4.07;0.90;;;;;;;;;;6156338;23;20168;-93
2023/08/29 13:01:54;;;;;;;1.05;0.60;;;;;;;;;;6157954;23;20220;-91
2023/08/29 13:04:59;;;;;;;2.35;1.13;;;;;;;;;;6155984;23;20184;-92
2023/08/29 13:08:08;;;;;;;2.22;0.60;;;;;;;;;;6156911;23;20163;-90
2023/08/29 13:11:16;;;;;;;1.27;0.55;;;;;;;;;;6152730;23;20192;-89
2023/08/29 13:14:23;;;;;;;1.73;0.90;;;;;;;;;;6149947;23;20172;-91
2023/08/29 13:17:29;;;;;;;0.63;0.50;;;;;;;;;;6152776;23;20165;-90
2023/08/29 13:20:35;;;;;;;0.40;0.40;;;;;;;;;;6151970;23;20220;-91
2023/08/29 13:23:40;;;;;;;3.17;1.13;;;;;;;;;;6148428;23;20164;-89
2023/08/29 13:26:45;;;;;;;1.33;0.60;;;;;;;;;;6148188;23;20215;-89
2023/08/29 13:29:52;;;;;;;1.23;0.80;;;;;;;;;;6149101;23;20193;-89
2023/08/29 13:32:57;;;;;;;1.00;0.70;;;;;;;;;;6165184;23;20650;-89
2023/08/29 13:36:02;;;;;;;2.35;0.80;;;;;;;;;;6197841;23;20235;-88
2023/08/29 13:39:07;;;;;;;1.02;0.65;;;;;;;;;;6195440;23;20180;-91
2023/08/29 13:42:14;;;;;;;1.30;0.98;;;;;;;;;;6194918;23;20164;-90
2023/08/29 13:45:20;;;;;;;3.58;1.30;;;;;;;;;;6196650;23;20183;-91
2023/08/29 13:48:27;;;;;;;0.90;0.65;;;;;;;;;;6201821;23;20215;-92
2023/08/29 13:51:31;;;;;;;1.80;0.70;;;;;;;;;;6200379;23;20210;-92
2023/08/29 13:54:37;;;;;;;0.80;0.55;;;;;;;;;;6196085;23;20561;-90
2023/08/29 13:57:42;;;;;;;1.25;0.80;;;;;;;;;;6198068;23;20167;-90
2023/08/29 14:00:50;;;;;;;1.15;0.80;;;;;;;;;;6196132;23;20284;-90
2023/08/29 14:03:55;;;;;;;1.85;0.63;;;;;;;;;;6198931;23;20172;-90
2023/08/29 14:07:01;;;;;;;3.45;0.80;;;;;;;;;;6198250;23;20167;-91
2023/08/29 14:10:07;;;;;;;1.48;0.95;;;;;;;;;;6199058;23;20294;-91
2023/08/29 14:13:12;;;;;;;2.03;1.35;;;;;;;;;;6195822;23;20196;-89
2023/08/29 14:16:19;;;;;;;1.45;0.60;;;;;;;;;;6198163;23;20221;-88
2023/08/29 14:19:23;;;;;;;2.15;1.48;;;;;;;;;;6196576;23;20171;-89
2023/08/29 14:22:29;;;;;;;1.45;1.10;;;;;;;;;;6198182;23;20207;-92
2023/08/29 14:25:34;;;;;;;0.90;0.80;;;;;;;;;;6194433;23;20167;-91
2023/08/29 14:28:39;;;;;;;1.45;1.02;;;;;;;;;;6193049;23;20304;-88
2023/08/29 14:31:46;;;;;;;2.08;1.48;;;;;;;;;;6195027;23;20264;-89
2023/08/29 14:34:51;;;;;;;1.83;1.00;;;;;;;;;;6197344;23;20196;-89
2023/08/29 14:37:56;;;;;;;1.15;0.93;;;;;;;;;;6199822;23;20171;-94
2023/08/29 14:41:07;;;;;;;2.30;0.80;;;;;;;;;;6199300;23;20173;-93
2023/08/29 14:44:12;;;;;;;2.85;1.45;;;;;;;;;;6198584;23;20196;-89
2023/08/29 14:47:19;;;;;;;1.40;0.70;;;;;;;;;;6202393;23;20148;-90
2023/08/29 14:50:24;;;;;;;0.55;0.55;;;;;;;;;;6203667;23;20180;-93
2023/08/29 14:53:29;;;;;;;4.22;0.98;;;;;;;;;;6200256;23;20168;-89
2023/08/29 14:56:36;;;;;;;2.50;0.80;;;;;;;;;;6201210;23;20243;-90
2023/08/29 14:59:42;;;;;;;1.75;1.00;;;;;;;;;;6201580;23;20212;-91
2023/08/29 15:02:48;;;;;;;2.60;1.30;;;;;;;;;;6200513;23;20176;-91
2023/08/29 15:05:57;;;;;;;1.08;0.90;;;;;;;;;;6199657;23;20176;-89
2023/08/29 15:09:03;;;;;;;1.88;1.10;;;;;;;;;;6202037;23;20186;-89
2023/08/29 15:12:09;;;;;;;3.33;1.40;;;;;;;;;;6204541;23;20199;-91
2023/08/29 15:15:15;;;;;;;3.28;1.30;;;;;;;;;;6220393;23;20183;-90
2023/08/29 15:18:21;;;;;;;1.48;0.82;;;;;;;;;;6201653;23;20171;-91
2023/08/29 15:21:26;;;;;;;1.52;1.00;;;;;;;;;;6200279;23;20148;-87
2023/08/29 15:24:31;;;;;;;1.85;1.02;;;;;;;;;;6200539;23;20168;-92
2023/08/29 15:27:36;;;;;;;2.20;1.30;;;;;;;;;;6201857;23;20250;-90
2023/08/29 15:30:42;;;;;;;2.25;1.20;;;;;;;;;;6202615;23;20178;-91
2023/08/29 15:33:48;;;;;;;1.75;1.02;;;;;;;;;;6200162;23;20224;-88
2023/08/29 15:36:55;;;;;;;2.50;1.20;;;;;;;;;;6198786;23;20196;-88
2023/08/29 15:40:03;;;;;;;1.20;1.10;;;;;;;;;;6201451;23;20167;-90
2023/08/29 15:43:09;;;;;;;1.25;0.90;;;;;;;;;;6202609;23;20176;-88
2023/08/29 15:46:14;;;;;;;2.00;1.13;;;;;;;;;;6200910;23;20152;-91
2023/08/29 15:49:21;;;;;;;1.95;1.05;;;;;;;;;;6198008;23;20151;-90
2023/08/29 15:52:27;;;;;;;2.72;1.40;;;;;;;;;;6198444;23;20171;-89
2023/08/29 15:55:32;;;;;;;1.75;1.17;;;;;;;;;;6200349;23;20190;-91
2023/08/29 15:58:38;;;;;;;1.75;0.90;;;;;;;;;;6198765;23;20180;-91
2023/08/29 16:01:42;;;;;;;4.25;1.70;;;;;;;;;;6198173;23;20175;-90
2023/08/29 16:04:49;;;;;;;3.15;1.42;;;;;;;;;;6200582;23;20635;-90
2023/08/29 16:07:54;;;;;;;2.47;1.38;;;;;;;;;;6199274;23;20168;-91
2023/08/29 16:11:00;;;;;;;1.88;1.33;;;;;;;;;;6199576;23;20254;-91
2023/08/29 16:14:05;;;;;;;5.80;2.30;;;;;;;;;;6200341;23;20268;-93
2023/08/29 16:17:12;;;;;;;6.65;1.85;;;;;;;;;;6199980;23;20246;-88
2023/08/29 16:20:19;;;;;;;5.05;1.50;;;;;;;;;;6200430;23;20171;-89
2023/08/29 16:23:24;;;;;;;1.90;1.25;;;;;;;;;;6199987;23;20172;-91
2023/08/29 16:26:31;;;;;;;3.00;1.50;;;;;;;;;;6199350;23;20176;-92
2023/08/29 16:29:36;;;;;;;1.67;1.30;;;;;;;;;;6199198;23;20509;-90
2023/08/29 16:32:41;;;;;;;2.85;1.60;;;;;;;;;;6199185;23;20192;-88
2023/08/29 16:35:48;;;;;;;2.72;1.40;;;;;;;;;;6200817;23;20163;-92
2023/08/29 16:38:53;;;;;;;4.30;1.38;;;;;;;;;;6197777;23;20168;-91
2023/08/29 16:41:58;;;;;;;3.95;2.47;;;;;;;;;;6199053;23;20606;-90
2023/08/29 16:45:05;;;;;;;1.48;1.30;;;;;;;;;;6196402;23;20164;-87
2023/08/29 16:48:11;;;;;;;3.72;1.17;;;;;;;;;;6200209;23;20172;-90
2023/08/29 16:51:17;;;;;;;3.03;1.20;;;;;;;;;;6198603;23;20199;-94
2023/08/29 16:54:23;;;;;;;1.88;1.15;;;;;;;;;;6196525;23;20184;-90
2023/08/29 17:00:47;;;;;;;4.18;2.55;;;;;;;;;;6198596;23;20690;-91
2023/08/29 17:03:52;;;;;;;4.75;2.95;;;;;;;;;;6197299;23;20614;-90
2023/08/29 17:06:59;;;;;;;3.17;1.30;;;;;;;;;;6198241;23;20207;-91
2023/08/29 17:10:05;;;;;;;5.07;1.90;;;;;;;;;;6196227;23;20188;-90
2023/08/29 17:13:10;;;;;;;2.88;1.40;;;;;;;;;;6195175;23;20168;-90
2023/08/29 17:16:15;;;;;;;1.65;1.45;;;;;;;;;;6197350;23;20221;-92
2023/08/29 17:19:20;;;;;;;2.85;1.42;;;;;;;;;;6196611;23;20168;-90
2023/08/29 17:22:27;;;;;;;2.85;1.90;;;;;;;;;;6197856;23;20260;-91
2023/08/29 17:25:32;;;;;;;4.38;2.00;;;;;;;;;;6197317;23;20207;-92
2023/08/29 17:28:37;;;;;;;0.50;0.50;;;;;;;;;;6194535;23;20158;-91
2023/08/29 17:31:42;;;;;;;0.20;0.20;;;;;;;;;;6195945;23;20206;-91
2023/08/29 17:34:47;;;;;;;0.40;0.32;;;;;;;;;;6197429;23;20163;-90
2023/08/29 17:37:54;;;;;;;0.70;0.70;;;;;;;;;;6195562;23;20235;-90
2023/08/29 17:41:00;;;;;;;0.73;0.60;;;;;;;;;;6198978;23;20167;-90
2023/08/29 17:44:05;;;;;;;0.28;0.28;;;;;;;;;;6197209;23;20168;-88
2023/08/29 17:47:10;;;;;;;0.80;0.68;;;;;;;;;;6198913;23;20151;-91
2023/08/29 17:50:15;;;;;;;0.60;0.60;;;;;;;;;;6200863;23;20234;-91
2023/08/29 17:53:21;;;;;;;6.35;0.88;;;;;;;;;;6199682;23;20224;-91
2023/08/29 17:56:27;;;;;;;0.50;0.50;;;;;;;;;;6198693;23;20184;-92
2023/08/29 17:59:33;;;;;;;1.20;1.00;;;;;;;;;;6195699;23;20247;-90
2023/08/29 18:02:39;;;;;;;0.20;0.20;;;;;;;;;;6198507;23;20172;-89
2023/08/29 18:05:48;;;;;;;0.70;0.70;;;;;;;;;;6199373;23;20296;-90
2023/08/29 18:08:55;;;;;;;0.60;0.60;;;;;;;;;;6195876;23;20208;-88
2023/08/29 18:12:00;;;;;;;0.30;0.30;;;;;;;;;;6196783;23;20252;-90
2023/08/29 18:15:07;;;;;;;0.47;0.47;;;;;;;;;;6198749;23;20168;-91
2023/08/29 18:18:19;;;;;;;0.55;0.55;;;;;;;;;;6201824;23;20163;-91
2023/08/29 18:21:25;;;;;;;0.52;0.52;;;;;;;;;;6201410;23;20175;-92
2023/08/29 18:24:32;;;;;;;0.65;0.65;;;;;;;;;;6198367;23;20172;-91
2023/08/29 18:27:38;;;;;;;0.60;0.60;;;;;;;;;;6199452;23;20207;-92
2023/08/29 18:30:43;;;;;;;0.65;0.65;;;;;;;;;;6198440;23;20168;-90
2023/08/29 18:33:48;;;;;;;3.10;2.53;;;;;;;;;;6200516;23;20188;-91
2023/08/29 18:36:54;;;;;;;1.13;1.05;;;;;;;;;;6201598;23;20232;-92
2023/08/29 18:40:01;;;;;;;2.03;0.88;;;;;;;;;;6200499;23;20211;-91
2023/08/29 18:43:06;;;;;;;1.83;1.08;;;;;;;;;;6200955;23;20211;-91
2023/08/29 18:46:12;;;;;;;0.40;0.40;;;;;;;;;;6198828;23;20167;-90
2023/08/29 18:49:17;;;;;;;0.20;0.20;;;;;;;;;;6198658;23;20163;-92
2023/08/29 18:52:23;;;;;;;0.35;0.35;;;;;;;;;;6197020;23;20199;-90
2023/08/29 18:55:29;;;;;;;0.40;0.40;;;;;;;;;;6197019;23;20465;-90